sensor_id;sensor_type;location;lat;lon;timestamp;P1;durP1;ratioP1;P2;durP2;ratioP2
52554;SDS011;38455;52.710;6.502;2022-10-15T00:00:45;78.78;;;36.65;;
52554;SDS011;38455;52.710;6.502;2022-10-15T00:03:12;105.60;;;33.85;;
52554;SDS011;38455;52.710;6.502;2022-10-15T00:05:38;498.55;;;61.63;;
52554;SDS011;38455;52.710;6.502;2022-10-15T00:08:05;358.80;;;51.28;;
52554;SDS011;38455;52.710;6.502;2022-10-15T00:10:31;106.10;;;35.30;;
52554;SDS011;38455;52.710;6.502;2022-10-15T00:12:58;128.05;;;33.33;;
52554;SDS011;38455;52.710;6.502;2022-10-15T00:15:23;274.80;;;39.85;;
52554;SDS011;38455;52.710;6.502;2022-10-15T00:17:49;165.63;;;38.22;;
52554;SDS011;38455;52.710;6.502;2022-10-15T00:20:15;208.07;;;41.10;;
52554;SDS011;38455;52.710;6.502;2022-10-15T00:22:41;169.52;;;37.08;;
52554;SDS011;38455;52.710;6.502;2022-10-15T00:25:07;80.68;;;32.00;;
52554;SDS011;38455;52.710;6.502;2022-10-15T00:27:33;270.98;;;42.20;;
52554;SDS011;38455;52.710;6.502;2022-10-15T00:30:00;94.65;;;32.08;;
52554;SDS011;38455;52.710;6.502;2022-10-15T00:32:27;123.38;;;34.33;;
52554;SDS011;38455;52.710;6.502;2022-10-15T00:34:53;152.13;;;35.13;;
52554;SDS011;38455;52.710;6.502;2022-10-15T00:37:19;122.18;;;35.13;;
52554;SDS011;38455;52.710;6.502;2022-10-15T00:39:45;137.90;;;33.35;;
52554;SDS011;38455;52.710;6.502;2022-10-15T00:42:11;149.90;;;32.95;;
52554;SDS011;38455;52.710;6.502;2022-10-15T00:47:13;190.63;;;35.20;;
52554;SDS011;38455;52.710;6.502;2022-10-15T00:49:43;152.07;;;31.52;;
52554;SDS011;38455;52.710;6.502;2022-10-15T00:52:15;105.40;;;32.33;;
52554;SDS011;38455;52.710;6.502;2022-10-15T00:54:45;89.22;;;33.63;;
52554;SDS011;38455;52.710;6.502;2022-10-15T00:57:13;80.30;;;31.95;;
52554;SDS011;38455;52.710;6.502;2022-10-15T00:59:43;83.85;;;31.33;;
52554;SDS011;38455;52.710;6.502;2022-10-15T01:02:13;80.00;;;30.85;;
52554;SDS011;38455;52.710;6.502;2022-10-15T01:04:41;126.93;;;34.20;;
52554;SDS011;38455;52.710;6.502;2022-10-15T01:07:07;74.85;;;31.60;;
52554;SDS011;38455;52.710;6.502;2022-10-15T01:09:33;64.32;;;29.88;;
52554;SDS011;38455;52.710;6.502;2022-10-15T01:11:59;66.82;;;31.15;;
52554;SDS011;38455;52.710;6.502;2022-10-15T01:14:27;61.60;;;30.20;;
52554;SDS011;38455;52.710;6.502;2022-10-15T01:25:48;64.35;;;30.67;;
52554;SDS011;38455;52.710;6.502;2022-10-15T01:31:08;68.82;;;31.55;;
52554;SDS011;38455;52.710;6.502;2022-10-15T01:36:40;61.65;;;30.35;;
52554;SDS011;38455;52.710;6.502;2022-10-15T01:41:50;61.60;;;31.33;;
52554;SDS011;38455;52.710;6.502;2022-10-15T01:47:07;62.85;;;31.60;;
52554;SDS011;38455;52.710;6.502;2022-10-15T01:49:45;62.50;;;30.92;;
52554;SDS011;38455;52.710;6.502;2022-10-15T01:52:14;61.55;;;29.90;;
52554;SDS011;38455;52.710;6.502;2022-10-15T01:54:43;66.55;;;31.55;;
52554;SDS011;38455;52.710;6.502;2022-10-15T01:57:11;68.45;;;31.58;;
52554;SDS011;38455;52.710;6.502;2022-10-15T01:59:38;68.15;;;30.92;;
52554;SDS011;38455;52.710;6.502;2022-10-15T02:02:05;62.78;;;31.48;;
52554;SDS011;38455;52.710;6.502;2022-10-15T02:04:31;60.70;;;29.33;;
52554;SDS011;38455;52.710;6.502;2022-10-15T02:07:00;69.18;;;31.02;;
52554;SDS011;38455;52.710;6.502;2022-10-15T02:09:30;58.75;;;30.73;;
52554;SDS011;38455;52.710;6.502;2022-10-15T02:14:46;60.03;;;29.42;;
52554;SDS011;38455;52.710;6.502;2022-10-15T02:17:30;66.95;;;31.35;;
52554;SDS011;38455;52.710;6.502;2022-10-15T02:20:05;78.00;;;32.58;;
52554;SDS011;38455;52.710;6.502;2022-10-15T02:23:12;73.50;;;31.55;;
52554;SDS011;38455;52.710;6.502;2022-10-15T02:25:44;63.22;;;32.13;;
52554;SDS011;38455;52.710;6.502;2022-10-15T02:28:12;64.30;;;30.45;;
52554;SDS011;38455;52.710;6.502;2022-10-15T02:30:41;68.28;;;30.48;;
52554;SDS011;38455;52.710;6.502;2022-10-15T02:33:09;58.80;;;29.38;;
52554;SDS011;38455;52.710;6.502;2022-10-15T02:35:36;67.57;;;32.15;;
52554;SDS011;38455;52.710;6.502;2022-10-15T02:38:03;60.80;;;29.73;;
52554;SDS011;38455;52.710;6.502;2022-10-15T02:40:32;65.10;;;31.50;;
52554;SDS011;38455;52.710;6.502;2022-10-15T02:42:59;64.95;;;30.65;;
52554;SDS011;38455;52.710;6.502;2022-10-15T02:45:29;89.20;;;33.28;;
52554;SDS011;38455;52.710;6.502;2022-10-15T02:47:55;65.32;;;31.35;;
52554;SDS011;38455;52.710;6.502;2022-10-15T02:50:20;72.03;;;31.85;;
52554;SDS011;38455;52.710;6.502;2022-10-15T02:52:46;65.30;;;29.85;;
52554;SDS011;38455;52.710;6.502;2022-10-15T02:55:11;68.47;;;32.22;;
52554;SDS011;38455;52.710;6.502;2022-10-15T02:57:37;73.03;;;31.63;;
52554;SDS011;38455;52.710;6.502;2022-10-15T03:00:03;60.75;;;30.42;;
52554;SDS011;38455;52.710;6.502;2022-10-15T03:02:29;67.63;;;30.77;;
52554;SDS011;38455;52.710;6.502;2022-10-15T03:04:54;72.10;;;32.10;;
52554;SDS011;38455;52.710;6.502;2022-10-15T03:07:20;61.97;;;29.92;;
52554;SDS011;38455;52.710;6.502;2022-10-15T03:09:46;73.60;;;33.10;;
52554;SDS011;38455;52.710;6.502;2022-10-15T03:12:11;74.38;;;32.47;;
52554;SDS011;38455;52.710;6.502;2022-10-15T03:14:37;65.20;;;30.40;;
52554;SDS011;38455;52.710;6.502;2022-10-15T03:17:02;67.68;;;31.23;;
52554;SDS011;38455;52.710;6.502;2022-10-15T03:19:28;62.83;;;32.38;;
52554;SDS011;38455;52.710;6.502;2022-10-15T03:21:53;67.00;;;32.38;;
52554;SDS011;38455;52.710;6.502;2022-10-15T03:24:19;66.68;;;31.63;;
52554;SDS011;38455;52.710;6.502;2022-10-15T03:26:45;69.78;;;32.50;;
52554;SDS011;38455;52.710;6.502;2022-10-15T03:29:10;72.57;;;32.72;;
52554;SDS011;38455;52.710;6.502;2022-10-15T03:31:36;73.45;;;33.28;;
52554;SDS011;38455;52.710;6.502;2022-10-15T03:34:01;71.05;;;33.67;;
52554;SDS011;38455;52.710;6.502;2022-10-15T03:36:27;64.30;;;31.17;;
52554;SDS011;38455;52.710;6.502;2022-10-15T03:38:53;63.63;;;31.80;;
52554;SDS011;38455;52.710;6.502;2022-10-15T03:41:18;72.30;;;34.13;;
52554;SDS011;38455;52.710;6.502;2022-10-15T03:43:44;71.13;;;32.88;;
52554;SDS011;38455;52.710;6.502;2022-10-15T03:46:09;70.47;;;34.72;;
52554;SDS011;38455;52.710;6.502;2022-10-15T03:48:35;76.80;;;34.45;;
52554;SDS011;38455;52.710;6.502;2022-10-15T03:51:01;81.97;;;36.25;;
52554;SDS011;38455;52.710;6.502;2022-10-15T03:53:26;87.32;;;36.20;;
52554;SDS011;38455;52.710;6.502;2022-10-15T03:55:52;79.07;;;34.97;;
52554;SDS011;38455;52.710;6.502;2022-10-15T03:58:18;72.22;;;33.85;;
52554;SDS011;38455;52.710;6.502;2022-10-15T04:00:43;75.57;;;34.17;;
52554;SDS011;38455;52.710;6.502;2022-10-15T04:03:09;105.97;;;35.78;;
52554;SDS011;38455;52.710;6.502;2022-10-15T04:05:35;76.00;;;34.80;;
52554;SDS011;38455;52.710;6.502;2022-10-15T04:08:01;108.57;;;36.50;;
52554;SDS011;38455;52.710;6.502;2022-10-15T04:10:27;80.82;;;33.75;;
52554;SDS011;38455;52.710;6.502;2022-10-15T04:12:54;92.32;;;35.22;;
52554;SDS011;38455;52.710;6.502;2022-10-15T04:15:19;77.57;;;35.55;;
52554;SDS011;38455;52.710;6.502;2022-10-15T04:17:45;88.45;;;36.53;;
52554;SDS011;38455;52.710;6.502;2022-10-15T04:20:11;73.88;;;34.67;;
52554;SDS011;38455;52.710;6.502;2022-10-15T04:22:36;106.80;;;34.65;;
52554;SDS011;38455;52.710;6.502;2022-10-15T04:25:02;77.40;;;35.70;;
52554;SDS011;38455;52.710;6.502;2022-10-15T04:27:28;101.35;;;38.30;;
52554;SDS011;38455;52.710;6.502;2022-10-15T04:29:54;81.65;;;36.60;;
52554;SDS011;38455;52.710;6.502;2022-10-15T04:32:20;84.00;;;35.38;;
52554;SDS011;38455;52.710;6.502;2022-10-15T04:34:45;98.93;;;39.25;;
52554;SDS011;38455;52.710;6.502;2022-10-15T04:37:11;89.13;;;37.20;;
52554;SDS011;38455;52.710;6.502;2022-10-15T04:39:37;96.35;;;40.97;;
52554;SDS011;38455;52.710;6.502;2022-10-15T04:42:03;86.55;;;39.17;;
52554;SDS011;38455;52.710;6.502;2022-10-15T04:44:29;84.53;;;39.78;;
52554;SDS011;38455;52.710;6.502;2022-10-15T04:46:54;81.57;;;38.10;;
52554;SDS011;38455;52.710;6.502;2022-10-15T04:49:21;81.70;;;39.28;;
52554;SDS011;38455;52.710;6.502;2022-10-15T04:51:47;81.82;;;38.42;;
52554;SDS011;38455;52.710;6.502;2022-10-15T04:54:13;80.63;;;38.22;;
52554;SDS011;38455;52.710;6.502;2022-10-15T04:56:39;88.68;;;38.83;;
52554;SDS011;38455;52.710;6.502;2022-10-15T04:59:07;78.90;;;36.35;;
52554;SDS011;38455;52.710;6.502;2022-10-15T05:01:33;90.40;;;39.30;;
52554;SDS011;38455;52.710;6.502;2022-10-15T05:03:59;85.47;;;36.72;;
52554;SDS011;38455;52.710;6.502;2022-10-15T05:06:24;105.32;;;40.25;;
52554;SDS011;38455;52.710;6.502;2022-10-15T05:08:51;90.80;;;37.55;;
52554;SDS011;38455;52.710;6.502;2022-10-15T05:11:21;83.43;;;37.92;;
52554;SDS011;38455;52.710;6.502;2022-10-15T05:13:48;79.57;;;36.75;;
52554;SDS011;38455;52.710;6.502;2022-10-15T05:18:42;88.47;;;39.67;;
52554;SDS011;38455;52.710;6.502;2022-10-15T05:21:09;88.68;;;38.38;;
52554;SDS011;38455;52.710;6.502;2022-10-15T05:23:35;86.93;;;39.08;;
52554;SDS011;38455;52.710;6.502;2022-10-15T05:26:02;99.95;;;40.60;;
52554;SDS011;38455;52.710;6.502;2022-10-15T05:28:29;95.65;;;41.75;;
52554;SDS011;38455;52.710;6.502;2022-10-15T05:30:55;86.28;;;39.38;;
52554;SDS011;38455;52.710;6.502;2022-10-15T05:33:26;119.75;;;42.25;;
52554;SDS011;38455;52.710;6.502;2022-10-15T05:35:52;90.93;;;39.63;;
52554;SDS011;38455;52.710;6.502;2022-10-15T05:38:18;103.68;;;43.72;;
52554;SDS011;38455;52.710;6.502;2022-10-15T05:40:47;92.93;;;40.15;;
52554;SDS011;38455;52.710;6.502;2022-10-15T05:43:13;100.00;;;41.17;;
52554;SDS011;38455;52.710;6.502;2022-10-15T05:45:39;94.93;;;41.00;;
52554;SDS011;38455;52.710;6.502;2022-10-15T05:48:05;89.10;;;41.13;;
52554;SDS011;38455;52.710;6.502;2022-10-15T05:50:31;102.25;;;41.35;;
52554;SDS011;38455;52.710;6.502;2022-10-15T05:52:57;100.47;;;42.35;;
52554;SDS011;38455;52.710;6.502;2022-10-15T05:55:22;107.55;;;43.17;;
52554;SDS011;38455;52.710;6.502;2022-10-15T05:57:48;105.18;;;40.88;;
52554;SDS011;38455;52.710;6.502;2022-10-15T06:00:14;104.78;;;43.80;;
52554;SDS011;38455;52.710;6.502;2022-10-15T06:02:40;96.90;;;42.13;;
52554;SDS011;38455;52.710;6.502;2022-10-15T06:05:05;87.70;;;40.00;;
52554;SDS011;38455;52.710;6.502;2022-10-15T06:07:31;96.55;;;42.50;;
52554;SDS011;38455;52.710;6.502;2022-10-15T06:09:57;95.78;;;42.13;;
52554;SDS011;38455;52.710;6.502;2022-10-15T06:12:22;105.07;;;43.38;;
52554;SDS011;38455;52.710;6.502;2022-10-15T06:14:48;97.90;;;41.50;;
52554;SDS011;38455;52.710;6.502;2022-10-15T06:17:13;92.00;;;40.65;;
52554;SDS011;38455;52.710;6.502;2022-10-15T06:19:39;90.32;;;39.85;;
52554;SDS011;38455;52.710;6.502;2022-10-15T06:22:04;94.75;;;42.70;;
52554;SDS011;38455;52.710;6.502;2022-10-15T06:24:30;88.80;;;40.97;;
52554;SDS011;38455;52.710;6.502;2022-10-15T06:26:57;91.88;;;40.05;;
52554;SDS011;38455;52.710;6.502;2022-10-15T06:29:23;90.70;;;40.25;;
52554;SDS011;38455;52.710;6.502;2022-10-15T06:31:49;75.93;;;38.92;;
52554;SDS011;38455;52.710;6.502;2022-10-15T06:34:15;80.07;;;40.40;;
52554;SDS011;38455;52.710;6.502;2022-10-15T06:36:40;95.82;;;40.28;;
52554;SDS011;38455;52.710;6.502;2022-10-15T06:39:06;90.88;;;40.08;;
52554;SDS011;38455;52.710;6.502;2022-10-15T06:41:32;80.68;;;39.10;;
52554;SDS011;38455;52.710;6.502;2022-10-15T06:43:57;78.97;;;39.03;;
52554;SDS011;38455;52.710;6.502;2022-10-15T06:46:23;87.40;;;39.42;;
52554;SDS011;38455;52.710;6.502;2022-10-15T06:48:48;85.65;;;38.90;;
52554;SDS011;38455;52.710;6.502;2022-10-15T06:51:15;82.43;;;38.33;;
52554;SDS011;38455;52.710;6.502;2022-10-15T06:53:41;82.22;;;38.63;;
52554;SDS011;38455;52.710;6.502;2022-10-15T06:56:07;78.38;;;39.50;;
52554;SDS011;38455;52.710;6.502;2022-10-15T06:58:33;78.63;;;37.47;;
52554;SDS011;38455;52.710;6.502;2022-10-15T07:01:00;75.10;;;37.17;;
52554;SDS011;38455;52.710;6.502;2022-10-15T07:03:26;81.90;;;40.05;;
52554;SDS011;38455;52.710;6.502;2022-10-15T07:05:52;78.00;;;39.45;;
52554;SDS011;38455;52.710;6.502;2022-10-15T07:08:17;75.00;;;36.85;;
52554;SDS011;38455;52.710;6.502;2022-10-15T07:10:43;82.25;;;39.22;;
52554;SDS011;38455;52.710;6.502;2022-10-15T07:13:08;80.85;;;38.65;;
52554;SDS011;38455;52.710;6.502;2022-10-15T07:15:34;81.10;;;41.03;;
52554;SDS011;38455;52.710;6.502;2022-10-15T07:18:00;75.65;;;37.17;;
52554;SDS011;38455;52.710;6.502;2022-10-15T07:20:26;74.82;;;38.60;;
52554;SDS011;38455;52.710;6.502;2022-10-15T07:22:56;81.22;;;39.65;;
52554;SDS011;38455;52.710;6.502;2022-10-15T07:25:23;83.18;;;39.42;;
52554;SDS011;38455;52.710;6.502;2022-10-15T07:27:49;75.60;;;39.47;;
52554;SDS011;38455;52.710;6.502;2022-10-15T07:30:15;74.57;;;38.20;;
52554;SDS011;38455;52.710;6.502;2022-10-15T07:32:41;76.78;;;38.45;;
52554;SDS011;38455;52.710;6.502;2022-10-15T07:35:07;79.68;;;39.92;;
52554;SDS011;38455;52.710;6.502;2022-10-15T07:37:33;81.80;;;39.58;;
52554;SDS011;38455;52.710;6.502;2022-10-15T07:40:00;82.32;;;39.08;;
52554;SDS011;38455;52.710;6.502;2022-10-15T07:42:26;74.05;;;39.83;;
52554;SDS011;38455;52.710;6.502;2022-10-15T07:44:51;81.22;;;40.83;;
52554;SDS011;38455;52.710;6.502;2022-10-15T07:47:17;80.50;;;39.00;;
52554;SDS011;38455;52.710;6.502;2022-10-15T07:49:43;79.82;;;38.90;;
52554;SDS011;38455;52.710;6.502;2022-10-15T07:52:08;78.05;;;39.75;;
52554;SDS011;38455;52.710;6.502;2022-10-15T07:54:34;74.88;;;38.85;;
52554;SDS011;38455;52.710;6.502;2022-10-15T07:57:00;80.50;;;40.72;;
52554;SDS011;38455;52.710;6.502;2022-10-15T07:59:25;72.30;;;38.63;;
52554;SDS011;38455;52.710;6.502;2022-10-15T08:01:51;73.80;;;39.72;;
52554;SDS011;38455;52.710;6.502;2022-10-15T08:04:17;68.75;;;38.72;;
52554;SDS011;38455;52.710;6.502;2022-10-15T08:06:44;73.38;;;39.28;;
52554;SDS011;38455;52.710;6.502;2022-10-15T08:09:10;68.68;;;38.38;;
52554;SDS011;38455;52.710;6.502;2022-10-15T08:11:38;71.30;;;39.72;;
52554;SDS011;38455;52.710;6.502;2022-10-15T08:14:03;67.43;;;38.60;;
52554;SDS011;38455;52.710;6.502;2022-10-15T08:16:29;71.45;;;38.15;;
52554;SDS011;38455;52.710;6.502;2022-10-15T08:18:56;71.32;;;38.47;;
52554;SDS011;38455;52.710;6.502;2022-10-15T08:21:22;72.60;;;40.45;;
52554;SDS011;38455;52.710;6.502;2022-10-15T08:23:47;73.82;;;40.75;;
52554;SDS011;38455;52.710;6.502;2022-10-15T08:26:13;68.30;;;39.30;;
52554;SDS011;38455;52.710;6.502;2022-10-15T08:28:38;74.03;;;40.97;;
52554;SDS011;38455;52.710;6.502;2022-10-15T08:31:04;75.63;;;40.45;;
52554;SDS011;38455;52.710;6.502;2022-10-15T08:33:30;73.38;;;39.30;;
52554;SDS011;38455;52.710;6.502;2022-10-15T08:35:56;77.22;;;39.25;;
52554;SDS011;38455;52.710;6.502;2022-10-15T08:38:22;85.32;;;39.90;;
52554;SDS011;38455;52.710;6.502;2022-10-15T08:40:49;76.72;;;38.63;;
52554;SDS011;38455;52.710;6.502;2022-10-15T08:43:18;79.75;;;36.45;;
52554;SDS011;38455;52.710;6.502;2022-10-15T08:46:03;80.45;;;37.63;;
52554;SDS011;38455;52.710;6.502;2022-10-15T08:48:36;84.25;;;37.60;;
52554;SDS011;38455;52.710;6.502;2022-10-15T08:51:09;78.65;;;36.95;;
52554;SDS011;38455;52.710;6.502;2022-10-15T08:53:40;84.43;;;37.58;;
52554;SDS011;38455;52.710;6.502;2022-10-15T08:56:14;79.35;;;37.85;;
52554;SDS011;38455;52.710;6.502;2022-10-15T08:59:26;77.65;;;34.13;;
52554;SDS011;38455;52.710;6.502;2022-10-15T09:02:18;64.65;;;30.45;;
52554;SDS011;38455;52.710;6.502;2022-10-15T09:07:47;59.30;;;29.42;;
52554;SDS011;38455;52.710;6.502;2022-10-15T09:15:58;57.63;;;28.20;;
52554;SDS011;38455;52.710;6.502;2022-10-15T09:18:46;62.75;;;28.20;;
52554;SDS011;38455;52.710;6.502;2022-10-15T09:21:15;55.05;;;27.40;;
52554;SDS011;38455;52.710;6.502;2022-10-15T09:23:41;59.05;;;27.75;;
52554;SDS011;38455;52.710;6.502;2022-10-15T09:28:42;61.47;;;29.63;;
52554;SDS011;38455;52.710;6.502;2022-10-15T09:31:16;58.78;;;29.25;;
52554;SDS011;38455;52.710;6.502;2022-10-15T09:36:32;66.45;;;31.23;;
52554;SDS011;38455;52.710;6.502;2022-10-15T09:39:04;62.50;;;31.33;;
52554;SDS011;38455;52.710;6.502;2022-10-15T09:44:17;58.97;;;29.60;;
52554;SDS011;38455;52.710;6.502;2022-10-15T09:46:49;61.40;;;29.08;;
52554;SDS011;38455;52.710;6.502;2022-10-15T09:49:16;56.53;;;28.42;;
52554;SDS011;38455;52.710;6.502;2022-10-15T09:57:00;59.80;;;27.27;;
52554;SDS011;38455;52.710;6.502;2022-10-15T09:59:26;55.28;;;27.50;;
52554;SDS011;38455;52.710;6.502;2022-10-15T10:02:15;51.63;;;26.67;;
52554;SDS011;38455;52.710;6.502;2022-10-15T10:04:44;52.17;;;26.40;;
52554;SDS011;38455;52.710;6.502;2022-10-15T10:07:26;53.65;;;27.42;;
52554;SDS011;38455;52.710;6.502;2022-10-15T10:10:06;53.00;;;27.83;;
52554;SDS011;38455;52.710;6.502;2022-10-15T10:12:48;46.17;;;27.13;;
52554;SDS011;38455;52.710;6.502;2022-10-15T10:15:33;44.42;;;25.73;;
52554;SDS011;38455;52.710;6.502;2022-10-15T10:18:01;39.67;;;23.30;;
52554;SDS011;38455;52.710;6.502;2022-10-15T10:20:29;33.50;;;21.30;;
52554;SDS011;38455;52.710;6.502;2022-10-15T10:22:56;37.33;;;21.13;;
52554;SDS011;38455;52.710;6.502;2022-10-15T10:27:58;31.75;;;19.27;;
52554;SDS011;38455;52.710;6.502;2022-10-15T10:30:31;28.48;;;19.20;;
52554;SDS011;38455;52.710;6.502;2022-10-15T10:33:00;29.98;;;19.20;;
52554;SDS011;38455;52.710;6.502;2022-10-15T10:35:28;29.95;;;18.80;;
52554;SDS011;38455;52.710;6.502;2022-10-15T10:38:16;32.03;;;18.08;;
52554;SDS011;38455;52.710;6.502;2022-10-15T10:40:49;29.92;;;19.52;;
52554;SDS011;38455;52.710;6.502;2022-10-15T10:43:28;30.73;;;18.27;;
52554;SDS011;38455;52.710;6.502;2022-10-15T10:46:04;30.08;;;19.55;;
52554;SDS011;38455;52.710;6.502;2022-10-15T10:48:42;26.92;;;17.67;;
52554;SDS011;38455;52.710;6.502;2022-10-15T10:56:11;24.02;;;17.60;;
52554;SDS011;38455;52.710;6.502;2022-10-15T10:58:39;27.70;;;17.27;;
52554;SDS011;38455;52.710;6.502;2022-10-15T11:01:05;25.30;;;17.15;;
52554;SDS011;38455;52.710;6.502;2022-10-15T11:03:38;24.48;;;17.35;;
52554;SDS011;38455;52.710;6.502;2022-10-15T11:09:01;25.58;;;17.75;;
52554;SDS011;38455;52.710;6.502;2022-10-15T11:14:19;25.40;;;18.02;;
52554;SDS011;38455;52.710;6.502;2022-10-15T11:19:43;26.45;;;18.08;;
52554;SDS011;38455;52.710;6.502;2022-10-15T11:25:38;26.77;;;17.98;;
52554;SDS011;38455;52.710;6.502;2022-10-15T11:28:16;29.48;;;19.17;;
52554;SDS011;38455;52.710;6.502;2022-10-15T11:40:11;24.63;;;17.00;;
52554;SDS011;38455;52.710;6.502;2022-10-15T11:42:34;32.40;;;19.75;;
52554;SDS011;38455;52.710;6.502;2022-10-15T11:55:37;26.50;;;16.55;;
52554;SDS011;38455;52.710;6.502;2022-10-15T11:58:10;25.27;;;17.02;;
52554;SDS011;38455;52.710;6.502;2022-10-15T12:00:45;23.83;;;17.17;;
52554;SDS011;38455;52.710;6.502;2022-10-15T12:05:46;29.00;;;18.55;;
52554;SDS011;38455;52.710;6.502;2022-10-15T12:08:16;29.60;;;18.05;;
52554;SDS011;38455;52.710;6.502;2022-10-15T12:13:37;26.45;;;17.67;;
52554;SDS011;38455;52.710;6.502;2022-10-15T12:19:36;27.92;;;18.10;;
52554;SDS011;38455;52.710;6.502;2022-10-15T12:27:20;31.38;;;19.63;;
52554;SDS011;38455;52.710;6.502;2022-10-15T12:30:10;29.58;;;17.60;;
52554;SDS011;38455;52.710;6.502;2022-10-15T12:32:44;29.52;;;18.83;;
52554;SDS011;38455;52.710;6.502;2022-10-15T12:37:44;28.60;;;17.63;;
52554;SDS011;38455;52.710;6.502;2022-10-15T12:42:54;24.90;;;16.60;;
52554;SDS011;38455;52.710;6.502;2022-10-15T12:45:39;32.58;;;16.67;;
52554;SDS011;38455;52.710;6.502;2022-10-15T12:48:32;29.00;;;17.35;;
52554;SDS011;38455;52.710;6.502;2022-10-15T12:53:48;27.00;;;17.33;;
52554;SDS011;38455;52.710;6.502;2022-10-15T13:03:40;25.35;;;15.13;;
52554;SDS011;38455;52.710;6.502;2022-10-15T13:11:34;24.83;;;14.63;;
52554;SDS011;38455;52.710;6.502;2022-10-15T13:16:54;20.50;;;13.05;;
52554;SDS011;38455;52.710;6.502;2022-10-15T13:21:48;17.33;;;12.13;;
52554;SDS011;38455;52.710;6.502;2022-10-15T13:24:20;20.50;;;13.32;;
52554;SDS011;38455;52.710;6.502;2022-10-15T13:26:48;16.27;;;10.65;;
52554;SDS011;38455;52.710;6.502;2022-10-15T13:29:15;20.92;;;12.02;;
52554;SDS011;38455;52.710;6.502;2022-10-15T13:31:48;15.88;;;10.60;;
52554;SDS011;38455;52.710;6.502;2022-10-15T13:36:46;19.70;;;11.90;;
52554;SDS011;38455;52.710;6.502;2022-10-15T13:39:30;18.48;;;10.77;;
52554;SDS011;38455;52.710;6.502;2022-10-15T13:42:17;16.27;;;10.30;;
52554;SDS011;38455;52.710;6.502;2022-10-15T13:44:54;16.33;;;10.07;;
52554;SDS011;38455;52.710;6.502;2022-10-15T13:49:48;13.43;;;8.93;;
52554;SDS011;38455;52.710;6.502;2022-10-15T13:52:14;13.73;;;8.40;;
52554;SDS011;38455;52.710;6.502;2022-10-15T13:54:40;14.15;;;8.10;;
52554;SDS011;38455;52.710;6.502;2022-10-15T13:57:09;10.75;;;7.22;;
52554;SDS011;38455;52.710;6.502;2022-10-15T13:59:42;12.10;;;6.80;;
52554;SDS011;38455;52.710;6.502;2022-10-15T14:02:09;11.07;;;6.28;;
52554;SDS011;38455;52.710;6.502;2022-10-15T14:04:36;9.32;;;6.28;;
52554;SDS011;38455;52.710;6.502;2022-10-15T14:07:03;8.30;;;6.07;;
52554;SDS011;38455;52.710;6.502;2022-10-15T14:09:45;10.15;;;6.20;;
52554;SDS011;38455;52.710;6.502;2022-10-15T14:12:11;9.05;;;6.05;;
52554;SDS011;38455;52.710;6.502;2022-10-15T14:14:44;8.77;;;6.13;;
52554;SDS011;38455;52.710;6.502;2022-10-15T14:19:50;11.63;;;5.65;;
52554;SDS011;38455;52.710;6.502;2022-10-15T14:22:23;10.98;;;5.93;;
52554;SDS011;38455;52.710;6.502;2022-10-15T14:24:51;4.90;;;3.92;;
52554;SDS011;38455;52.710;6.502;2022-10-15T14:27:20;5.45;;;4.45;;
52554;SDS011;38455;52.710;6.502;2022-10-15T14:29:49;6.10;;;4.00;;
52554;SDS011;38455;52.710;6.502;2022-10-15T14:34:45;6.05;;;4.25;;
52554;SDS011;38455;52.710;6.502;2022-10-15T14:37:27;7.38;;;5.40;;
52554;SDS011;38455;52.710;6.502;2022-10-15T14:42:38;10.25;;;7.63;;
52554;SDS011;38455;52.710;6.502;2022-10-15T14:45:09;11.43;;;7.53;;
52554;SDS011;38455;52.710;6.502;2022-10-15T14:47:36;8.85;;;7.00;;
52554;SDS011;38455;52.710;6.502;2022-10-15T14:50:02;8.18;;;6.00;;
52554;SDS011;38455;52.710;6.502;2022-10-15T14:52:30;6.97;;;5.45;;
52554;SDS011;38455;52.710;6.502;2022-10-15T14:57:34;6.13;;;4.80;;
52554;SDS011;38455;52.710;6.502;2022-10-15T15:00:03;8.30;;;5.25;;
52554;SDS011;38455;52.710;6.502;2022-10-15T15:02:38;7.13;;;4.88;;
52554;SDS011;38455;52.710;6.502;2022-10-15T15:07:35;8.45;;;5.05;;
52554;SDS011;38455;52.710;6.502;2022-10-15T15:10:02;6.63;;;4.55;;
52554;SDS011;38455;52.710;6.502;2022-10-15T15:12:29;7.20;;;4.95;;
52554;SDS011;38455;52.710;6.502;2022-10-15T15:14:56;8.07;;;4.90;;
52554;SDS011;38455;52.710;6.502;2022-10-15T15:17:23;8.77;;;4.80;;
52554;SDS011;38455;52.710;6.502;2022-10-15T15:19:50;6.70;;;4.82;;
52554;SDS011;38455;52.710;6.502;2022-10-15T15:22:28;6.53;;;4.22;;
52554;SDS011;38455;52.710;6.502;2022-10-15T15:25:17;7.70;;;5.20;;
52554;SDS011;38455;52.710;6.502;2022-10-15T15:27:43;7.03;;;5.30;;
52554;SDS011;38455;52.710;6.502;2022-10-15T15:30:16;8.15;;;5.00;;
52554;SDS011;38455;52.710;6.502;2022-10-15T15:32:47;6.50;;;5.10;;
52554;SDS011;38455;52.710;6.502;2022-10-15T15:37:54;7.72;;;5.90;;
52554;SDS011;38455;52.710;6.502;2022-10-15T15:40:20;7.72;;;5.88;;
52554;SDS011;38455;52.710;6.502;2022-10-15T15:42:45;6.32;;;5.03;;
52554;SDS011;38455;52.710;6.502;2022-10-15T15:45:17;10.88;;;6.53;;
52554;SDS011;38455;52.710;6.502;2022-10-15T15:47:50;10.88;;;8.88;;
52554;SDS011;38455;52.710;6.502;2022-10-15T15:50:16;13.70;;;11.02;;
52554;SDS011;38455;52.710;6.502;2022-10-15T15:52:43;11.48;;;9.75;;
52554;SDS011;38455;52.710;6.502;2022-10-15T15:55:09;9.25;;;6.93;;
52554;SDS011;38455;52.710;6.502;2022-10-15T15:57:35;7.82;;;6.00;;
52554;SDS011;38455;52.710;6.502;2022-10-15T16:00:02;6.82;;;5.15;;
52554;SDS011;38455;52.710;6.502;2022-10-15T16:02:29;7.55;;;5.28;;
52554;SDS011;38455;52.710;6.502;2022-10-15T16:04:55;7.07;;;5.03;;
52554;SDS011;38455;52.710;6.502;2022-10-15T16:07:20;7.47;;;5.35;;
52554;SDS011;38455;52.710;6.502;2022-10-15T16:09:46;6.72;;;5.15;;
52554;SDS011;38455;52.710;6.502;2022-10-15T16:12:12;7.47;;;5.55;;
52554;SDS011;38455;52.710;6.502;2022-10-15T16:14:37;8.75;;;5.57;;
52554;SDS011;38455;52.710;6.502;2022-10-15T16:17:03;7.20;;;5.05;;
52554;SDS011;38455;52.710;6.502;2022-10-15T16:19:29;10.70;;;5.93;;
52554;SDS011;38455;52.710;6.502;2022-10-15T16:21:54;7.80;;;5.68;;
52554;SDS011;38455;52.710;6.502;2022-10-15T16:24:20;6.63;;;5.30;;
52554;SDS011;38455;52.710;6.502;2022-10-15T16:26:46;8.48;;;5.75;;
52554;SDS011;38455;52.710;6.502;2022-10-15T16:29:11;9.52;;;6.07;;
52554;SDS011;38455;52.710;6.502;2022-10-15T16:31:39;8.82;;;6.32;;
52554;SDS011;38455;52.710;6.502;2022-10-15T16:34:04;9.35;;;6.13;;
52554;SDS011;38455;52.710;6.502;2022-10-15T16:36:31;6.90;;;5.82;;
52554;SDS011;38455;52.710;6.502;2022-10-15T16:38:56;9.75;;;6.30;;
52554;SDS011;38455;52.710;6.502;2022-10-15T16:41:23;8.07;;;6.22;;
52554;SDS011;38455;52.710;6.502;2022-10-15T16:43:48;7.00;;;5.68;;
52554;SDS011;38455;52.710;6.502;2022-10-15T16:46:15;9.30;;;6.55;;
52554;SDS011;38455;52.710;6.502;2022-10-15T16:48:41;8.82;;;6.32;;
52554;SDS011;38455;52.710;6.502;2022-10-15T16:51:11;9.43;;;6.45;;
52554;SDS011;38455;52.710;6.502;2022-10-15T16:53:39;9.25;;;6.15;;
52554;SDS011;38455;52.710;6.502;2022-10-15T16:56:08;9.25;;;6.05;;
52554;SDS011;38455;52.710;6.502;2022-10-15T16:58:36;7.72;;;5.78;;
52554;SDS011;38455;52.710;6.502;2022-10-15T17:01:03;6.53;;;5.07;;
52554;SDS011;38455;52.710;6.502;2022-10-15T17:03:31;8.07;;;5.05;;